Cinderella 1 — SBLK — position and weather

sailwx.info

Track history (hours):
 
Tides and Currents Weather Stations Pressure Air Temp Water Temp Dewpoint Dewpoint Depression Visibility Wind Speed Wind Dir Waves Ship Positions

Cinderella 1

Last reported at 2017-Jun-26 13:30 UTC. Time now 2017-Jun-26 14:04 UTC.
Position N 59°25' E 018°22'.

Length 42 m; draft 1.1 m.

Type: Passenger vessel. MMSI: 265524530.

Date/timePositionNaut miles runAvg speedWind from/ knotsBaromVisibWave heightAir tempDewpointWater temp
2017-Jun-26 13:30N 59°25' E 018°22'612.5
2017-Jun-26 13:00N 59°24' E 018°34'710.9
2017-Jun-26 12:20N 59°28' E 018°47'2 5.7
2017-Jun-26 12:00N 59°29' E 018°50'4 8.5
2017-Jun-26 11:29N 59°25' E 018°55'1 2.1
2017-Jun-26 10:55N 59°24' E 018°53'5 9.2
2017-Jun-26 10:23N 59°29' E 018°50'3 5.4
2017-Jun-26 09:49N 59°27' E 018°45'412.9
2017-Jun-26 09:28N 59°25' E 018°37'816.6
2017-Jun-26 09:00N 59°26' E 018°22'510.2
2017-Jun-26 08:30N 59°22' E 018°16'611.6
2017-Jun-26 08:00N 59°20' E 018°05'0 0.1
2017-Jun-26 07:30N 59°20' E 018°05'0 0.0
2017-Jun-26 07:00N 59°20' E 018°05'0 0.0
2017-Jun-26 06:30N 59°20' E 018°05'0 0.0
2017-Jun-26 06:00N 59°20' E 018°05'0 0.0
2017-Jun-26 05:30N 59°20' E 018°05'0 0.0
2017-Jun-26 05:00N 59°20' E 018°05'0 0.0
2017-Jun-26 04:31N 59°20' E 018°05'0 0.0
2017-Jun-26 04:01N 59°20' E 018°05'0 0.0
2017-Jun-26 03:30N 59°20' E 018°05'0 0.0
2017-Jun-26 03:00N 59°20' E 018°05'0 0.0
2017-Jun-26 02:31N 59°20' E 018°05'0 0.0
2017-Jun-26 02:00N 59°20' E 018°05'0 0.0
2017-Jun-26 01:31N 59°20' E 018°05'0 0.0
2017-Jun-26 01:00N 59°20' E 018°05'0 0.0
2017-Jun-26 00:30N 59°20' E 018°05'0 0.0
2017-Jun-26 00:00N 59°20' E 018°05'0 0.0
2017-Jun-25 23:31N 59°20' E 018°05'0 0.0
2017-Jun-25 23:00N 59°20' E 018°05'0 0.0
2017-Jun-25 22:31N 59°20' E 018°05'0 0.0
2017-Jun-25 22:00N 59°20' E 018°05'0 0.0
2017-Jun-25 21:30N 59°20' E 018°05'0 0.0
2017-Jun-25 21:00N 59°20' E 018°05'0 0.0
2017-Jun-25 20:30N 59°20' E 018°05'0 0.0
2017-Jun-25 20:00N 59°20' E 018°05'2 3.1
2017-Jun-25 19:30N 59°19' E 018°07'815.5
2017-Jun-25 19:01N 59°23' E 018°20'711.3
2017-Jun-25 18:24N 59°24' E 018°34'514.0
2017-Jun-25 18:00N 59°27' E 018°44'5 9.1
2017-Jun-25 17:30N 59°27' E 018°52'7 5.9
2017-Jun-25 16:23N 59°26' E 018°39'411.8
2017-Jun-25 16:00N 59°25' E 018°31'611.1
2017-Jun-25 15:30N 59°23' E 018°20'817.2
2017-Jun-25 15:00N 59°19' E 018°06'1 1.9
2017-Jun-25 14:31N 59°20' E 018°05'1010.1
2017-Jun-25 13:30N 59°25' E 018°22'612.5
2017-Jun-25 13:01N 59°24' E 018°34'7 8.3
2017-Jun-25 12:11N 59°28' E 018°46'213.2
2017-Jun-25 12:00N 59°27' E 018°51'3 5.7
2017-Jun-25 11:31N 59°25' E 018°55'1 2.3
2017-Jun-25 10:59N 59°24' E 018°53'2 4.7
2017-Jun-25 10:31N 59°27' E 018°53'4 7.8
2017-Jun-25 09:57N 59°28' E 018°45'510.3
2017-Jun-25 09:29N 59°25' E 018°38'814.7
2017-Jun-25 08:57N 59°25' E 018°22'512.1
2017-Jun-25 08:30N 59°21' E 018°14'510.1
2017-Jun-25 08:01N 59°20' E 018°05'0 0.0
2017-Jun-25 07:31N 59°20' E 018°05'0 0.0
2017-Jun-25 07:01N 59°20' E 018°05'0 0.0
2017-Jun-25 06:31N 59°20' E 018°05'0 0.0
2017-Jun-25 06:01N 59°20' E 018°05'0 0.0
2017-Jun-25 05:30N 59°20' E 018°05'0 0.0
2017-Jun-25 05:00N 59°20' E 018°05'0 0.0
2017-Jun-25 04:30N 59°20' E 018°05'0 0.0
2017-Jun-25 04:01N 59°20' E 018°05'0 0.0
2017-Jun-25 03:31N 59°20' E 018°05'0 0.0
2017-Jun-25 03:00N 59°20' E 018°05'0 0.0
2017-Jun-25 02:30N 59°20' E 018°05'0 0.0
2017-Jun-25 02:00N 59°20' E 018°05'0 0.0
2017-Jun-25 01:31N 59°20' E 018°05'0 0.0
2017-Jun-25 01:00N 59°20' E 018°05'0 0.0
2017-Jun-25 00:30N 59°20' E 018°05'0 0.0
2017-Jun-25 00:01N 59°20' E 018°05'0 0.0
2017-Jun-24 23:31N 59°20' E 018°05'0 0.0
2017-Jun-24 23:01N 59°20' E 018°05'0 0.0
2017-Jun-24 22:30N 59°20' E 018°05'0 0.0
2017-Jun-24 22:00N 59°20' E 018°05'0 0.0
2017-Jun-24 21:31N 59°20' E 018°05'0 0.0
2017-Jun-24 21:01N 59°20' E 018°05'0 0.0
2017-Jun-24 20:30N 59°20' E 018°05'0 0.0
2017-Jun-24 20:00N 59°20' E 018°05'5 9.1
2017-Jun-24 19:31N 59°21' E 018°14'612.2
2017-Jun-24 19:00N 59°25' E 018°22'912.9
2017-Jun-24 18:18N 59°26' E 018°40'3 9.5
2017-Jun-24 17:57N 59°28' E 018°46'3 6.0
2017-Jun-24 17:31N 59°28' E 018°51'3 6.7
2017-Jun-24 17:01N 59°25' E 018°54'610.5
2017-Jun-24 16:29N 59°26' E 018°44'713.7
2017-Jun-24 15:58N 59°26' E 018°30'510.6
2017-Jun-24 15:29N 59°24' E 018°21'815.7
2017-Jun-24 15:00N 59°19' E 018°09'2 1.6
2017-Jun-24 14:00N 59°20' E 018°11'713.3
2017-Jun-24 13:31N 59°24' E 018°21'612.1
2017-Jun-24 13:00N 59°24' E 018°34'7 9.5
2017-Jun-24 12:13N 59°28' E 018°46'211.5
2017-Jun-24 12:00N 59°28' E 018°51'3 5.4
2017-Jun-24 11:28N 59°25' E 018°55'0 0.4
2017-Jun-24 10:44N 59°25' E 018°55'2 6.6
2017-Jun-24 10:31N 59°27' E 018°55'6 8.3
2017-Jun-24 09:50N 59°27' E 018°44'410.5
2017-Jun-24 09:28N 59°25' E 018°38'816.4
2017-Jun-24 08:59N 59°25' E 018°22'611.9
2017-Jun-24 08:30N 59°21' E 018°14'510.2
2017-Jun-24 08:01N 59°20' E 018°05'0 0.1
2017-Jun-24 07:30N 59°20' E 018°05'0 0.0
2017-Jun-24 07:00N 59°20' E 018°05'0 0.0
2017-Jun-24 06:30N 59°20' E 018°05'0 0.0
2017-Jun-24 06:00N 59°20' E 018°05'0 0.0
2017-Jun-24 05:30N 59°20' E 018°05'0 0.0
2017-Jun-24 05:00N 59°20' E 018°05'0 0.0
2017-Jun-24 04:30N 59°20' E 018°05'0 0.0
2017-Jun-24 04:00N 59°20' E 018°05'0 0.0
2017-Jun-24 03:30N 59°20' E 018°05'0 0.0
2017-Jun-24 03:00N 59°20' E 018°05'0 0.0
2017-Jun-24 02:30N 59°20' E 018°05'0 0.0
2017-Jun-24 02:00N 59°20' E 018°05'0 0.0
2017-Jun-24 01:30N 59°20' E 018°05'0 0.0
2017-Jun-24 01:00N 59°20' E 018°05'0 0.0
2017-Jun-24 00:30N 59°20' E 018°05'0 0.0
2017-Jun-24 00:00N 59°20' E 018°05'0 0.0
2017-Jun-23 23:30N 59°20' E 018°05'0 0.0
2017-Jun-23 23:00N 59°20' E 018°05'0 0.0
2017-Jun-23 22:30N 59°20' E 018°05'0 0.0
2017-Jun-23 22:00N 59°20' E 018°05'0 0.0
2017-Jun-23 21:30N 59°20' E 018°05'0 0.0
2017-Jun-23 21:00N 59°20' E 018°05'0 0.0
2017-Jun-23 20:30N 59°20' E 018°05'0 0.0
2017-Jun-23 20:00N 59°20' E 018°05'3 5.0
2017-Jun-23 19:30N 59°19' E 018°09'815.2
2017-Jun-23 18:59N 59°24' E 018°21'611.4
2017-Jun-23 18:27N 59°24' E 018°33'614.0
2017-Jun-23 18:00N 59°27' E 018°45'4 7.2
2017-Jun-23 17:30N 59°29' E 018°50'510.6
2017-Jun-23 17:01N 59°25' E 018°54'510.8
2017-Jun-23 16:31N 59°26' E 018°44'713.2
2017-Jun-23 16:00N 59°25' E 018°31'5 9.9
2017-Jun-23 15:30N 59°24' E 018°21'816.6
2017-Jun-23 15:01N 59°19' E 018°09'2 1.5
2017-Jun-23 14:00N 59°19' E 018°06'816.6
2017-Jun-23 13:30N 59°23' E 018°20'510.3
2017-Jun-23 13:00N 59°26' E 018°28'910.4
2017-Jun-23 12:08N 59°28' E 018°46'1 8.8
2017-Jun-23 12:01N 59°27' E 018°45'5 9.4
2017-Jun-23 11:31N 59°24' E 018°53'3 6.2
2017-Jun-23 11:00N 59°27' E 018°55'3 6.2
2017-Jun-23 10:31N 59°29' E 018°50'5 9.9
2017-Jun-23 10:00N 59°26' E 018°41'610.7
2017-Jun-23 09:27N 59°26' E 018°29'4 9.8
2017-Jun-23 09:00N 59°24' E 018°21'714.6
2017-Jun-23 08:30N 59°19' E 018°10'3 5.6
2017-Jun-23 08:00N 59°20' E 018°05'0 0.4
2017-Jun-23 07:30N 59°20' E 018°05'0 0.0
2017-Jun-23 07:00N 59°20' E 018°05'0 0.0
2017-Jun-23 06:30N 59°20' E 018°05'0 0.0
2017-Jun-23 06:01N 59°20' E 018°05'0 0.0
2017-Jun-23 05:31N 59°20' E 018°05'0 0.0
2017-Jun-23 05:00N 59°20' E 018°05'0 0.0
2017-Jun-23 04:30N 59°20' E 018°05'0 0.0
2017-Jun-23 04:00N 59°20' E 018°05'0 0.0
2017-Jun-23 03:30N 59°20' E 018°05'0 0.0
2017-Jun-23 03:00N 59°20' E 018°05'0 0.0
2017-Jun-23 02:30N 59°20' E 018°05'0 0.0
2017-Jun-23 02:00N 59°20' E 018°05'0 0.0
2017-Jun-23 01:30N 59°20' E 018°05'0 0.0
2017-Jun-23 01:00N 59°20' E 018°05'0 0.0
2017-Jun-23 00:31N 59°20' E 018°05'0 0.0
2017-Jun-23 00:00N 59°20' E 018°05'0 0.0
2017-Jun-22 23:30N 59°20' E 018°05'0 0.0
2017-Jun-22 23:00N 59°20' E 018°05'0 0.0
2017-Jun-22 22:31N 59°20' E 018°05'0 0.0
2017-Jun-22 22:01N 59°20' E 018°05'0 0.0
2017-Jun-22 21:31N 59°20' E 018°05'0 0.0
2017-Jun-22 21:00N 59°20' E 018°05'0 0.0
2017-Jun-22 20:30N 59°20' E 018°05'713.9
2017-Jun-22 20:00N 59°23' E 018°17'713.1
2017-Jun-22 19:28N 59°26' E 018°30'918.9
2017-Jun-22 19:01N 59°26' E 018°47'4 7.8
2017-Jun-22 18:31N 59°25' E 018°55'4 7.5
2017-Jun-22 17:56N 59°29' E 018°50'3 7.0
2017-Jun-22 17:30N 59°28' E 018°45'612.1
2017-Jun-22 16:58N 59°24' E 018°34'613.2
2017-Jun-22 16:29N 59°25' E 018°21'511.0
2017-Jun-22 16:00N 59°21' E 018°14'5 9.5
2017-Jun-22 15:31N 59°20' E 018°05'0 0.0
2017-Jun-22 15:01N 59°20' E 018°05'2 1.9
2017-Jun-22 14:01N 59°19' E 018°08'816.3
2017-Jun-22 13:30N 59°24' E 018°21'712.5
2017-Jun-22 12:56N 59°24' E 018°35'611.6
2017-Jun-22 12:26N 59°27' E 018°44'2 5.0
2017-Jun-22 12:00N 59°28' E 018°49'4 7.7
2017-Jun-22 11:31N 59°25' E 018°55'0 0.7
2017-Jun-22 10:59N 59°25' E 018°55'5 8.5
2017-Jun-22 10:25N 59°29' E 018°50'9 8.8
2017-Jun-22 09:21N 59°24' E 018°34'615.9
2017-Jun-22 08:58N 59°25' E 018°22'511.6
2017-Jun-22 08:30N 59°21' E 018°14'510.1
2017-Jun-22 08:00N 59°20' E 018°05'0 0.1
2017-Jun-22 07:31N 59°20' E 018°05'0 0.0
2017-Jun-22 07:00N 59°20' E 018°05'0 0.0
2017-Jun-22 06:31N 59°20' E 018°05'0 0.0
2017-Jun-22 06:00N 59°20' E 018°05'0 0.0
2017-Jun-22 05:30N 59°20' E 018°05'0 0.0
2017-Jun-22 05:00N 59°20' E 018°05'0 0.0
2017-Jun-22 04:30N 59°20' E 018°05'0 0.0
2017-Jun-22 04:00N 59°20' E 018°05'0 0.0
2017-Jun-22 03:30N 59°20' E 018°05'0 0.0
2017-Jun-22 03:00N 59°20' E 018°05'0 0.0
2017-Jun-22 02:30N 59°20' E 018°05'0 0.0
2017-Jun-22 02:01N 59°20' E 018°05'0 0.0
2017-Jun-22 01:30N 59°20' E 018°05'0 0.0
2017-Jun-22 01:00N 59°20' E 018°05'0 0.0
2017-Jun-22 00:30N 59°20' E 018°05'0 0.0
2017-Jun-22 00:00N 59°20' E 018°05'0 0.0
2017-Jun-21 23:31N 59°20' E 018°05'0 0.0
2017-Jun-21 23:00N 59°20' E 018°05'0 0.0
2017-Jun-21 22:30N 59°20' E 018°05'0 0.0
2017-Jun-21 22:00N 59°20' E 018°05'0 0.0
2017-Jun-21 21:30N 59°20' E 018°05'0 0.0
2017-Jun-21 21:00N 59°20' E 018°05'1 2.1
2017-Jun-21 20:30N 59°19' E 018°06'816.6
2017-Jun-21 20:00N 59°23' E 018°20'711.9
2017-Jun-21 19:23N 59°24' E 018°35'616.4
2017-Jun-21 19:00N 59°26' E 018°46'4 8.9
2017-Jun-21 18:31N 59°25' E 018°55'5 8.8
2017-Jun-21 18:00N 59°29' E 018°50'3 5.6
2017-Jun-21 17:30N 59°28' E 018°45'5 9.7
2017-Jun-21 17:01N 59°25' E 018°37'815.1
2017-Jun-21 16:30N 59°25' E 018°22'511.1
2017-Jun-21 16:00N 59°21' E 018°14'510.1
2017-Jun-21 15:31N 59°20' E 018°05'0 0.0
2017-Jun-21 15:00N 59°20' E 018°05'0 0.0
2017-Jun-21 14:30N 59°20' E 018°05'9 9.4
2017-Jun-21 13:31N 59°24' E 018°21'711.1
2017-Jun-21 12:54N 59°24' E 018°34'711.6
2017-Jun-21 12:17N 59°28' E 018°47'311.0
2017-Jun-21 12:00N 59°30' E 018°51'510.2
2017-Jun-21 11:30N 59°25' E 018°55'0 0.8
2017-Jun-21 10:59N 59°25' E 018°55'5 9.5
2017-Jun-21 10:29N 59°29' E 018°50'3 5.8
2017-Jun-21 09:57N 59°27' E 018°44'611.8
2017-Jun-21 09:25N 59°24' E 018°34'613.9
2017-Jun-21 08:59N 59°25' E 018°22'511.1
2017-Jun-21 08:30N 59°21' E 018°14'510.2
2017-Jun-21 08:01N 59°20' E 018°05'0 0.0
2017-Jun-21 07:30N 59°20' E 018°05'0 0.0
2017-Jun-21 07:00N 59°20' E 018°05'0 0.0
2017-Jun-21 06:30N 59°20' E 018°05'0 0.0
2017-Jun-21 06:00N 59°20' E 018°05'0 0.0
2017-Jun-21 05:30N 59°20' E 018°05'0 0.0
2017-Jun-21 05:00N 59°20' E 018°05'0 0.0
2017-Jun-21 04:30N 59°20' E 018°05'0 0.0
2017-Jun-21 04:00N 59°20' E 018°05'0 0.0
2017-Jun-21 03:30N 59°20' E 018°05'0 0.0
2017-Jun-21 03:00N 59°20' E 018°05'0 0.0
2017-Jun-21 02:30N 59°20' E 018°05'0 0.0
2017-Jun-21 02:00N 59°20' E 018°05'0 0.0
2017-Jun-21 01:30N 59°20' E 018°05'0 0.0
2017-Jun-21 01:00N 59°20' E 018°05'0 0.0
2017-Jun-21 00:30N 59°20' E 018°05'0 0.0
2017-Jun-21 00:01N 59°20' E 018°05'0 0.0
2017-Jun-20 23:31N 59°20' E 018°05'0 0.0
2017-Jun-20 23:00N 59°20' E 018°05'0 0.0
2017-Jun-20 22:30N 59°20' E 018°05'0 0.0
2017-Jun-20 22:00N 59°20' E 018°05'0 0.0
2017-Jun-20 21:30N 59°20' E 018°05'0 0.0
2017-Jun-20 21:00N 59°20' E 018°05'0 0.2
2017-Jun-20 20:30N 59°20' E 018°05'510.9
2017-Jun-20 20:00N 59°22' E 018°15'612.9
2017-Jun-20 19:30N 59°26' E 018°24'816.0
2017-Jun-20 18:59N 59°26' E 018°40'714.8
2017-Jun-20 18:30N 59°24' E 018°53'5 7.9
2017-Jun-20 17:54N 59°29' E 018°50'3 6.4
2017-Jun-20 17:25N 59°27' E 018°44'411.0
2017-Jun-20 17:00N 59°25' E 018°37'815.3
2017-Jun-20 16:30N 59°25' E 018°22'611.4
2017-Jun-20 16:00N 59°21' E 018°14'5 9.9
2017-Jun-20 15:31N 59°20' E 018°05'0 0.0
2017-Jun-20 15:01N 59°20' E 018°05'3 3.2
2017-Jun-20 14:01N 59°20' E 018°11'714.2
2017-Jun-20 13:30N 59°24' E 018°21'612.5
2017-Jun-20 13:01N 59°24' E 018°34'711.4
2017-Jun-20 12:25N 59°28' E 018°45'3 7.3
2017-Jun-20 12:00N 59°30' E 018°50'5 9.7
2017-Jun-20 11:31N 59°25' E 018°55'1 1.4
2017-Jun-20 10:54N 59°25' E 018°54'5 9.3
2017-Jun-20 10:25N 59°29' E 018°50'3 5.6
2017-Jun-20 09:52N 59°27' E 018°44'612.3
2017-Jun-20 09:23N 59°24' E 018°35'615.1
2017-Jun-20 08:58N 59°25' E 018°22'511.9
2017-Jun-20 08:30N 59°21' E 018°14'510.3
2017-Jun-20 08:01N 59°20' E 018°05'0 0.1
2017-Jun-20 07:31N 59°20' E 018°05'0 0.0
2017-Jun-20 07:01N 59°20' E 018°05'0 0.0
2017-Jun-20 06:31N 59°20' E 018°05'0 0.0
2017-Jun-20 06:01N 59°20' E 018°05'0 0.0
2017-Jun-20 05:31N 59°20' E 018°05'0 0.0
2017-Jun-20 05:01N 59°20' E 018°05'0 0.0
2017-Jun-20 04:31N 59°20' E 018°05'0 0.0
2017-Jun-20 04:01N 59°20' E 018°05'0 0.0
2017-Jun-20 03:31N 59°20' E 018°05'0 0.0
2017-Jun-20 03:00N 59°20' E 018°05'0 0.0
2017-Jun-20 02:31N 59°20' E 018°05'0 0.0
2017-Jun-20 02:00N 59°20' E 018°05'0 0.0
2017-Jun-20 01:31N 59°20' E 018°05'0 0.0
2017-Jun-20 01:01N 59°20' E 018°05'0 0.0
2017-Jun-20 00:31N 59°20' E 018°05'0 0.0
2017-Jun-20 00:00N 59°20' E 018°05'0 0.0
2017-Jun-19 23:31N 59°20' E 018°05'0 0.0
2017-Jun-19 23:01N 59°20' E 018°05'0 0.0
2017-Jun-19 22:31N 59°20' E 018°05'0 0.0
2017-Jun-19 22:01N 59°20' E 018°05'0 0.0
2017-Jun-19 21:30N 59°20' E 018°05'0 0.0
2017-Jun-19 21:00N 59°20' E 018°05'1 1.4
2017-Jun-19 20:30N 59°19' E 018°06'714.9
2017-Jun-19 20:01N 59°23' E 018°19'610.9
2017-Jun-19 19:30N 59°26' E 018°27'714.5
2017-Jun-19 19:01N 59°27' E 018°41'713.5
2017-Jun-19 18:31N 59°24' E 018°53'3 5.3
2017-Jun-19 18:00N 59°27' E 018°53'4 7.5
2017-Jun-19 17:30N 59°28' E 018°45'4 8.7
2017-Jun-19 17:00N 59°26' E 018°38'814.7
2017-Jun-19 16:28N 59°25' E 018°22'512.0
2017-Jun-19 16:00N 59°21' E 018°14'510.2
2017-Jun-19 15:31N 59°20' E 018°05'0 0.0
2017-Jun-19 15:00N 59°20' E 018°05'0 0.0
2017-Jun-19 14:30N 59°20' E 018°05'9 9.5
2017-Jun-19 13:30N 59°24' E 018°21'611.3
2017-Jun-19 12:56N 59°24' E 018°34'612.9
2017-Jun-19 12:29N 59°27' E 018°44'4 8.8
2017-Jun-19 12:00N 59°30' E 018°50'5 9.8
2017-Jun-19 11:31N 59°25' E 018°55'1 1.9
2017-Jun-19 11:00N 59°25' E 018°54'5 9.7
2017-Jun-19 10:31N 59°29' E 018°50'3 5.4
2017-Jun-19 10:00N 59°28' E 018°45'510.1
2017-Jun-19 09:28N 59°24' E 018°37'715.0
2017-Jun-19 08:59N 59°25' E 018°22'511.1
2017-Jun-19 08:31N 59°21' E 018°15'510.6
2017-Jun-19 08:00N 59°20' E 018°05'0 0.0
2017-Jun-19 07:31N 59°20' E 018°05'0 0.0
2017-Jun-19 07:00N 59°20' E 018°05'0 0.0
2017-Jun-19 06:30N 59°20' E 018°05'0 0.0
2017-Jun-19 06:00N 59°20' E 018°05'0 0.0
2017-Jun-19 05:30N 59°20' E 018°05'0 0.0
2017-Jun-19 05:00N 59°20' E 018°05'0 0.0
2017-Jun-19 04:31N 59°20' E 018°05'0 0.0
2017-Jun-19 04:00N 59°20' E 018°05'0 0.0
2017-Jun-19 03:30N 59°20' E 018°05'0 0.0
2017-Jun-19 03:00N 59°20' E 018°05'0 0.0
2017-Jun-19 02:30N 59°20' E 018°05'0 0.0
2017-Jun-19 02:00N 59°20' E 018°05'0 0.0
2017-Jun-19 01:30N 59°20' E 018°05'0 0.0
2017-Jun-19 01:00N 59°20' E 018°05'0 0.0
2017-Jun-19 00:30N 59°20' E 018°05'0 0.0
2017-Jun-19 00:00N 59°20' E 018°05'0 0.0
2017-Jun-18 23:30N 59°20' E 018°05'0 0.0
2017-Jun-18 23:00N 59°20' E 018°05'0 0.0
2017-Jun-18 22:30N 59°20' E 018°05'0 0.0
2017-Jun-18 22:00N 59°20' E 018°05'0 0.0
2017-Jun-18 21:30N 59°20' E 018°05'0 0.0
2017-Jun-18 21:00N 59°20' E 018°05'0 0.0
2017-Jun-18 20:30N 59°20' E 018°05'0 0.0
2017-Jun-18 20:00N 59°20' E 018°05'0 0.0
2017-Jun-18 19:30N 59°20' E 018°05'3 5.0
2017-Jun-18 19:00N 59°19' E 018°09'815.8
2017-Jun-18 18:31N 59°24' E 018°21'711.1
2017-Jun-18 17:55N 59°24' E 018°34'614.0
2017-Jun-18 17:30N 59°27' E 018°44'5 9.5
2017-Jun-18 17:01N 59°30' E 018°51'510.2
2017-Jun-18 16:31N 59°25' E 018°55'810.0
2017-Jun-18 15:44N 59°26' E 018°39'414.8
2017-Jun-18 15:30N 59°24' E 018°34'612.9
2017-Jun-18 15:00N 59°24' E 018°21'9 9.5
2017-Jun-18 14:00N 59°20' E 018°05'4 6.9
2017-Jun-18 13:30N 59°20' E 018°12'713.3
2017-Jun-18 13:00N 59°24' E 018°21'711.2
2017-Jun-18 12:21N 59°24' E 018°36'711.9
2017-Jun-18 11:44N 59°28' E 018°48'310.5
2017-Jun-18 11:27N 59°27' E 018°53'3 3.2
2017-Jun-18 10:28N 59°29' E 018°50'10 9.2
2017-Jun-18 09:26N 59°24' E 018°34'612.7
2017-Jun-18 08:58N 59°25' E 018°22'511.6
2017-Jun-18 08:30N 59°21' E 018°14'510.1
2017-Jun-18 08:01N 59°20' E 018°05'0 0.1
2017-Jun-18 07:30N 59°20' E 018°05'0 0.0
2017-Jun-18 07:00N 59°20' E 018°05'0 0.0
2017-Jun-18 06:30N 59°20' E 018°05'0 0.0
2017-Jun-18 06:00N 59°20' E 018°05'0 0.0
2017-Jun-18 05:31N 59°20' E 018°05'0 0.0
2017-Jun-18 05:00N 59°20' E 018°05'0 0.0
2017-Jun-18 04:30N 59°20' E 018°05'0 0.0
2017-Jun-18 04:00N 59°20' E 018°05'0 0.0
2017-Jun-18 03:30N 59°20' E 018°05'0 0.0
2017-Jun-18 03:00N 59°20' E 018°05'0 0.0
2017-Jun-18 02:30N 59°20' E 018°05'0 0.0
2017-Jun-18 02:00N 59°20' E 018°05'0 0.0
2017-Jun-18 01:30N 59°20' E 018°05'0 0.0
2017-Jun-18 01:00N 59°20' E 018°05'0 0.0
2017-Jun-18 00:30N 59°20' E 018°05'0 0.0
2017-Jun-18 00:00N 59°20' E 018°05'0 0.0
2017-Jun-17 23:31N 59°20' E 018°05'0 0.0
2017-Jun-17 23:01N 59°20' E 018°05'0 0.0
2017-Jun-17 22:30N 59°20' E 018°05'0 0.0
2017-Jun-17 22:00N 59°20' E 018°05'0 0.0
2017-Jun-17 21:30N 59°20' E 018°05'0 0.0
2017-Jun-17 21:00N 59°20' E 018°05'0 0.0
2017-Jun-17 20:30N 59°20' E 018°05'0 0.0
2017-Jun-17 20:00N 59°20' E 018°05'0 0.0
2017-Jun-17 19:30N 59°20' E 018°05'2 3.7
2017-Jun-17 19:00N 59°19' E 018°08'815.3
2017-Jun-17 18:30N 59°24' E 018°20'711.0
2017-Jun-17 17:51N 59°24' E 018°35'513.1
2017-Jun-17 17:29N 59°26' E 018°43'511.2
2017-Jun-17 17:01N 59°30' E 018°51'5 9.1
2017-Jun-17 16:30N 59°26' E 018°56'610.1
2017-Jun-17 15:52N 59°26' E 018°43'512.6
2017-Jun-17 15:27N 59°24' E 018°34'613.7
2017-Jun-17 15:00N 59°25' E 018°22'714.2
2017-Jun-17 14:31N 59°20' E 018°12'1 1.1
2017-Jun-17 13:30N 59°21' E 018°13'612.4
2017-Jun-17 13:00N 59°25' E 018°22'914.8
2017-Jun-17 12:26N 59°26' E 018°39'4 8.9
2017-Jun-17 12:00N 59°28' E 018°45'4 8.0
2017-Jun-17 11:30N 59°27' E 018°53'3 6.0
2017-Jun-17 11:01N 59°24' E 018°53'612.4
2017-Jun-17 10:31N 59°30' E 018°51'4 8.5
2017-Jun-17 10:00N 59°27' E 018°45'711.1
2017-Jun-17 09:24N 59°25' E 018°32'513.6
2017-Jun-17 09:00N 59°25' E 018°22'510.4
2017-Jun-17 08:30N 59°21' E 018°14'510.1
2017-Jun-17 08:01N 59°20' E 018°05'0 0.0
2017-Jun-17 07:30N 59°20' E 018°05'0 0.0
2017-Jun-17 07:00N 59°20' E 018°05'0 0.0
2017-Jun-17 06:30N 59°20' E 018°05'0 0.0
2017-Jun-17 06:01N 59°20' E 018°05'0 0.0
2017-Jun-17 05:30N 59°20' E 018°05'0 0.0
2017-Jun-17 05:00N 59°20' E 018°05'0 0.0
2017-Jun-17 04:30N 59°20' E 018°05'0 0.0
2017-Jun-17 04:00N 59°20' E 018°05'0 0.0
2017-Jun-17 03:30N 59°20' E 018°05'0 0.0
2017-Jun-17 03:00N 59°20' E 018°05'0 0.0
2017-Jun-17 02:30N 59°20' E 018°05'0 0.0
2017-Jun-17 02:00N 59°20' E 018°05'0 0.0
2017-Jun-17 01:30N 59°20' E 018°05'0 0.0
2017-Jun-17 01:00N 59°20' E 018°05'0 0.0
2017-Jun-17 00:30N 59°20' E 018°05'0 0.1
2017-Jun-17 00:00N 59°20' E 018°05'0 0.1
2017-Jun-16 23:30N 59°20' E 018°05'0 0.0
2017-Jun-16 23:01N 59°20' E 018°05'0 0.0
2017-Jun-16 22:30N 59°20' E 018°05'0 0.0
2017-Jun-16 22:01N 59°20' E 018°05'0 0.0
2017-Jun-16 21:30N 59°20' E 018°05'0 0.0
2017-Jun-16 21:01N 59°20' E 018°05'0 0.8
2017-Jun-16 20:30N 59°20' E 018°05'612.8
2017-Jun-16 20:01N 59°22' E 018°17'612.7
2017-Jun-16 19:31N 59°27' E 018°26'816.1
2017-Jun-16 19:00N 59°26' E 018°42'612.9
2017-Jun-16 18:31N 59°25' E 018°54'3 5.8
2017-Jun-16 18:01N 59°27' E 018°52'3 6.6
2017-Jun-16 17:31N 59°28' E 018°45'4 8.3
2017-Jun-16 17:01N 59°26' E 018°38'816.2
2017-Jun-16 16:31N 59°26' E 018°22'611.5
2017-Jun-16 16:00N 59°21' E 018°15'510.5
2017-Jun-16 15:31N 59°20' E 018°05'1 2.4
2017-Jun-16 15:00N 59°19' E 018°07'816.4
2017-Jun-16 14:30N 59°23' E 018°20'1312.8
2017-Jun-16 13:31N 59°26' E 018°45'  
Track history (hours):
 
Tides and Currents Weather Stations Pressure Air Temp Water Temp Dewpoint Dewpoint Depression Visibility Wind Speed Wind Dir Waves Ship Positions

Cinderella 1

Last reported at 2017-Jun-26 13:30 UTC. Time now 2017-Jun-26 14:04 UTC.
Position N 59°25' E 018°22'.

Length 42 m; draft 1.1 m.

Type: Passenger vessel. MMSI: 265524530.

Date/timePositionNaut miles runAvg speedWind from/ knotsBaromVisibWave heightAir tempDewpointWater temp
2017-Jun-26 13:30N 59°25' E 018°22'612.5
2017-Jun-26 13:00N 59°24' E 018°34'710.9
2017-Jun-26 12:20N 59°28' E 018°47'2 5.7
2017-Jun-26 12:00N 59°29' E 018°50'4 8.5
2017-Jun-26 11:29N 59°25' E 018°55'1 2.1
2017-Jun-26 10:55N 59°24' E 018°53'5 9.2
2017-Jun-26 10:23N 59°29' E 018°50'3 5.4
2017-Jun-26 09:49N 59°27' E 018°45'412.9
2017-Jun-26 09:28N 59°25' E 018°37'816.6
2017-Jun-26 09:00N 59°26' E 018°22'510.2
2017-Jun-26 08:30N 59°22' E 018°16'611.6
2017-Jun-26 08:00N 59°20' E 018°05'0 0.1
2017-Jun-26 07:30N 59°20' E 018°05'0 0.0
2017-Jun-26 07:00N 59°20' E 018°05'0 0.0
2017-Jun-26 06:30N 59°20' E 018°05'0 0.0
2017-Jun-26 06:00N 59°20' E 018°05'0 0.0
2017-Jun-26 05:30N 59°20' E 018°05'0 0.0
2017-Jun-26 05:00N 59°20' E 018°05'0 0.0
2017-Jun-26 04:31N 59°20' E 018°05'0 0.0
2017-Jun-26 04:01N 59°20' E 018°05'0 0.0
2017-Jun-26 03:30N 59°20' E 018°05'0 0.0
2017-Jun-26 03:00N 59°20' E 018°05'0 0.0
2017-Jun-26 02:31N 59°20' E 018°05'0 0.0
2017-Jun-26 02:00N 59°20' E 018°05'0 0.0
2017-Jun-26 01:31N 59°20' E 018°05'0 0.0
2017-Jun-26 01:00N 59°20' E 018°05'0 0.0
2017-Jun-26 00:30N 59°20' E 018°05'0 0.0
2017-Jun-26 00:00N 59°20' E 018°05'0 0.0
2017-Jun-25 23:31N 59°20' E 018°05'0 0.0
2017-Jun-25 23:00N 59°20' E 018°05'0 0.0
2017-Jun-25 22:31N 59°20' E 018°05'0 0.0
2017-Jun-25 22:00N 59°20' E 018°05'0 0.0
2017-Jun-25 21:30N 59°20' E 018°05'0 0.0
2017-Jun-25 21:00N 59°20' E 018°05'0 0.0
2017-Jun-25 20:30N 59°20' E 018°05'0 0.0
2017-Jun-25 20:00N 59°20' E 018°05'2 3.1
2017-Jun-25 19:30N 59°19' E 018°07'815.5
2017-Jun-25 19:01N 59°23' E 018°20'711.3
2017-Jun-25 18:24N 59°24' E 018°34'514.0
2017-Jun-25 18:00N 59°27' E 018°44'5 9.1
2017-Jun-25 17:30N 59°27' E 018°52'7 5.9
2017-Jun-25 16:23N 59°26' E 018°39'411.8
2017-Jun-25 16:00N 59°25' E 018°31'611.1
2017-Jun-25 15:30N 59°23' E 018°20'817.2
2017-Jun-25 15:00N 59°19' E 018°06'1 1.9
2017-Jun-25 14:31N 59°20' E 018°05'1010.1
2017-Jun-25 13:30N 59°25' E 018°22'612.5
2017-Jun-25 13:01N 59°24' E 018°34'7 8.3
2017-Jun-25 12:11N 59°28' E 018°46'213.2
2017-Jun-25 12:00N 59°27' E 018°51'3 5.7
2017-Jun-25 11:31N 59°25' E 018°55'1 2.3
2017-Jun-25 10:59N 59°24' E 018°53'2 4.7
2017-Jun-25 10:31N 59°27' E 018°53'4 7.8
2017-Jun-25 09:57N 59°28' E 018°45'510.3
2017-Jun-25 09:29N 59°25' E 018°38'814.7
2017-Jun-25 08:57N 59°25' E 018°22'512.1
2017-Jun-25 08:30N 59°21' E 018°14'510.1
2017-Jun-25 08:01N 59°20' E 018°05'0 0.0
2017-Jun-25 07:31N 59°20' E 018°05'0 0.0
2017-Jun-25 07:01N 59°20' E 018°05'0 0.0
2017-Jun-25 06:31N 59°20' E 018°05'0 0.0
2017-Jun-25 06:01N 59°20' E 018°05'0 0.0
2017-Jun-25 05:30N 59°20' E 018°05'0 0.0
2017-Jun-25 05:00N 59°20' E 018°05'0 0.0
2017-Jun-25 04:30N 59°20' E 018°05'0 0.0
2017-Jun-25 04:01N 59°20' E 018°05'0 0.0
2017-Jun-25 03:31N 59°20' E 018°05'0 0.0
2017-Jun-25 03:00N 59°20' E 018°05'0 0.0
2017-Jun-25 02:30N 59°20' E 018°05'0 0.0
2017-Jun-25 02:00N 59°20' E 018°05'0 0.0
2017-Jun-25 01:31N 59°20' E 018°05'0 0.0
2017-Jun-25 01:00N 59°20' E 018°05'0 0.0
2017-Jun-25 00:30N 59°20' E 018°05'0 0.0
2017-Jun-25 00:01N 59°20' E 018°05'0 0.0
2017-Jun-24 23:31N 59°20' E 018°05'0 0.0
2017-Jun-24 23:01N 59°20' E 018°05'0 0.0
2017-Jun-24 22:30N 59°20' E 018°05'0 0.0
2017-Jun-24 22:00N 59°20' E 018°05'0 0.0
2017-Jun-24 21:31N 59°20' E 018°05'0 0.0
2017-Jun-24 21:01N 59°20' E 018°05'0 0.0
2017-Jun-24 20:30N 59°20' E 018°05'0 0.0
2017-Jun-24 20:00N 59°20' E 018°05'5 9.1
2017-Jun-24 19:31N 59°21' E 018°14'612.2
2017-Jun-24 19:00N 59°25' E 018°22'912.9
2017-Jun-24 18:18N 59°26' E 018°40'3 9.5
2017-Jun-24 17:57N 59°28' E 018°46'3 6.0
2017-Jun-24 17:31N 59°28' E 018°51'3 6.7
2017-Jun-24 17:01N 59°25' E 018°54'610.5
2017-Jun-24 16:29N 59°26' E 018°44'713.7
2017-Jun-24 15:58N 59°26' E 018°30'510.6
2017-Jun-24 15:29N 59°24' E 018°21'815.7
2017-Jun-24 15:00N 59°19' E 018°09'2 1.6
2017-Jun-24 14:00N 59°20' E 018°11'713.3
2017-Jun-24 13:31N 59°24' E 018°21'612.1
2017-Jun-24 13:00N 59°24' E 018°34'7 9.5
2017-Jun-24 12:13N 59°28' E 018°46'211.5
2017-Jun-24 12:00N 59°28' E 018°51'3 5.4
2017-Jun-24 11:28N 59°25' E 018°55'0 0.4
2017-Jun-24 10:44N 59°25' E 018°55'2 6.6
2017-Jun-24 10:31N 59°27' E 018°55'6 8.3
2017-Jun-24 09:50N 59°27' E 018°44'410.5
2017-Jun-24 09:28N 59°25' E 018°38'816.4
2017-Jun-24 08:59N 59°25' E 018°22'611.9
2017-Jun-24 08:30N 59°21' E 018°14'510.2
2017-Jun-24 08:01N 59°20' E 018°05'0 0.1
2017-Jun-24 07:30N 59°20' E 018°05'0 0.0
2017-Jun-24 07:00N 59°20' E 018°05'0 0.0
2017-Jun-24 06:30N 59°20' E 018°05'0 0.0
2017-Jun-24 06:00N 59°20' E 018°05'0 0.0
2017-Jun-24 05:30N 59°20' E 018°05'0 0.0
2017-Jun-24 05:00N 59°20' E 018°05'0 0.0
2017-Jun-24 04:30N 59°20' E 018°05'0 0.0
2017-Jun-24 04:00N 59°20' E 018°05'0 0.0
2017-Jun-24 03:30N 59°20' E 018°05'0 0.0
2017-Jun-24 03:00N 59°20' E 018°05'0 0.0
2017-Jun-24 02:30N 59°20' E 018°05'0 0.0
2017-Jun-24 02:00N 59°20' E 018°05'0 0.0
2017-Jun-24 01:30N 59°20' E 018°05'0 0.0
2017-Jun-24 01:00N 59°20' E 018°05'0 0.0
2017-Jun-24 00:30N 59°20' E 018°05'0 0.0
2017-Jun-24 00:00N 59°20' E 018°05'0 0.0
2017-Jun-23 23:30N 59°20' E 018°05'0 0.0
2017-Jun-23 23:00N 59°20' E 018°05'0 0.0
2017-Jun-23 22:30N 59°20' E 018°05'0 0.0
2017-Jun-23 22:00N 59°20' E 018°05'0 0.0
2017-Jun-23 21:30N 59°20' E 018°05'0 0.0
2017-Jun-23 21:00N 59°20' E 018°05'0 0.0
2017-Jun-23 20:30N 59°20' E 018°05'0 0.0
2017-Jun-23 20:00N 59°20' E 018°05'3 5.0
2017-Jun-23 19:30N 59°19' E 018°09'815.2
2017-Jun-23 18:59N 59°24' E 018°21'611.4
2017-Jun-23 18:27N 59°24' E 018°33'614.0
2017-Jun-23 18:00N 59°27' E 018°45'4 7.2
2017-Jun-23 17:30N 59°29' E 018°50'510.6
2017-Jun-23 17:01N 59°25' E 018°54'510.8
2017-Jun-23 16:31N 59°26' E 018°44'713.2
2017-Jun-23 16:00N 59°25' E 018°31'5 9.9
2017-Jun-23 15:30N 59°24' E 018°21'816.6
2017-Jun-23 15:01N 59°19' E 018°09'2 1.5
2017-Jun-23 14:00N 59°19' E 018°06'816.6
2017-Jun-23 13:30N 59°23' E 018°20'510.3
2017-Jun-23 13:00N 59°26' E 018°28'910.4
2017-Jun-23 12:08N 59°28' E 018°46'1 8.8
2017-Jun-23 12:01N 59°27' E 018°45'5 9.4
2017-Jun-23 11:31N 59°24' E 018°53'3 6.2
2017-Jun-23 11:00N 59°27' E 018°55'3 6.2
2017-Jun-23 10:31N 59°29' E 018°50'5 9.9
2017-Jun-23 10:00N 59°26' E 018°41'610.7
2017-Jun-23 09:27N 59°26' E 018°29'4 9.8
2017-Jun-23 09:00N 59°24' E 018°21'714.6
2017-Jun-23 08:30N 59°19' E 018°10'3 5.6
2017-Jun-23 08:00N 59°20' E 018°05'0 0.4
2017-Jun-23 07:30N 59°20' E 018°05'0 0.0
2017-Jun-23 07:00N 59°20' E 018°05'0 0.0
2017-Jun-23 06:30N 59°20' E 018°05'0 0.0
2017-Jun-23 06:01N 59°20' E 018°05'0 0.0
2017-Jun-23 05:31N 59°20' E 018°05'0 0.0
2017-Jun-23 05:00N 59°20' E 018°05'0 0.0
2017-Jun-23 04:30N 59°20' E 018°05'0 0.0
2017-Jun-23 04:00N 59°20' E 018°05'0 0.0
2017-Jun-23 03:30N 59°20' E 018°05'0 0.0
2017-Jun-23 03:00N 59°20' E 018°05'0 0.0
2017-Jun-23 02:30N 59°20' E 018°05'0 0.0
2017-Jun-23 02:00N 59°20' E 018°05'0 0.0
2017-Jun-23 01:30N 59°20' E 018°05'0 0.0
2017-Jun-23 01:00N 59°20' E 018°05'0 0.0
2017-Jun-23 00:31N 59°20' E 018°05'0 0.0
2017-Jun-23 00:00N 59°20' E 018°05'0 0.0
2017-Jun-22 23:30N 59°20' E 018°05'0 0.0
2017-Jun-22 23:00N 59°20' E 018°05'0 0.0
2017-Jun-22 22:31N 59°20' E 018°05'0 0.0
2017-Jun-22 22:01N 59°20' E 018°05'0 0.0
2017-Jun-22 21:31N 59°20' E 018°05'0 0.0
2017-Jun-22 21:00N 59°20' E 018°05'0 0.0
2017-Jun-22 20:30N 59°20' E 018°05'713.9
2017-Jun-22 20:00N 59°23' E 018°17'713.1
2017-Jun-22 19:28N 59°26' E 018°30'918.9
2017-Jun-22 19:01N 59°26' E 018°47'4 7.8
2017-Jun-22 18:31N 59°25' E 018°55'4 7.5
2017-Jun-22 17:56N 59°29' E 018°50'3 7.0
2017-Jun-22 17:30N 59°28' E 018°45'612.1
2017-Jun-22 16:58N 59°24' E 018°34'613.2
2017-Jun-22 16:29N 59°25' E 018°21'511.0
2017-Jun-22 16:00N 59°21' E 018°14'5 9.5
2017-Jun-22 15:31N 59°20' E 018°05'0 0.0
2017-Jun-22 15:01N 59°20' E 018°05'2 1.9
2017-Jun-22 14:01N 59°19' E 018°08'816.3
2017-Jun-22 13:30N 59°24' E 018°21'712.5
2017-Jun-22 12:56N 59°24' E 018°35'611.6
2017-Jun-22 12:26N 59°27' E 018°44'2 5.0
2017-Jun-22 12:00N 59°28' E 018°49'4 7.7
2017-Jun-22 11:31N 59°25' E 018°55'0 0.7
2017-Jun-22 10:59N 59°25' E 018°55'5 8.5
2017-Jun-22 10:25N 59°29' E 018°50'9 8.8
2017-Jun-22 09:21N 59°24' E 018°34'615.9
2017-Jun-22 08:58N 59°25' E 018°22'511.6
2017-Jun-22 08:30N 59°21' E 018°14'510.1
2017-Jun-22 08:00N 59°20' E 018°05'0 0.1
2017-Jun-22 07:31N 59°20' E 018°05'0 0.0
2017-Jun-22 07:00N 59°20' E 018°05'0 0.0
2017-Jun-22 06:31N 59°20' E 018°05'0 0.0
2017-Jun-22 06:00N 59°20' E 018°05'0 0.0
2017-Jun-22 05:30N 59°20' E 018°05'0 0.0
2017-Jun-22 05:00N 59°20' E 018°05'0 0.0
2017-Jun-22 04:30N 59°20' E 018°05'0 0.0
2017-Jun-22 04:00N 59°20' E 018°05'0 0.0
2017-Jun-22 03:30N 59°20' E 018°05'0 0.0
2017-Jun-22 03:00N 59°20' E 018°05'0 0.0
2017-Jun-22 02:30N 59°20' E 018°05'0 0.0
2017-Jun-22 02:01N 59°20' E 018°05'0 0.0
2017-Jun-22 01:30N 59°20' E 018°05'0 0.0
2017-Jun-22 01:00N 59°20' E 018°05'0 0.0
2017-Jun-22 00:30N 59°20' E 018°05'0 0.0
2017-Jun-22 00:00N 59°20' E 018°05'0 0.0
2017-Jun-21 23:31N 59°20' E 018°05'0 0.0
2017-Jun-21 23:00N 59°20' E 018°05'0 0.0
2017-Jun-21 22:30N 59°20' E 018°05'0 0.0
2017-Jun-21 22:00N 59°20' E 018°05'0 0.0
2017-Jun-21 21:30N 59°20' E 018°05'0 0.0
2017-Jun-21 21:00N 59°20' E 018°05'1 2.1
2017-Jun-21 20:30N 59°19' E 018°06'816.6
2017-Jun-21 20:00N 59°23' E 018°20'711.9
2017-Jun-21 19:23N 59°24' E 018°35'616.4
2017-Jun-21 19:00N 59°26' E 018°46'4 8.9
2017-Jun-21 18:31N 59°25' E 018°55'5 8.8
2017-Jun-21 18:00N 59°29' E 018°50'3 5.6
2017-Jun-21 17:30N 59°28' E 018°45'5 9.7
2017-Jun-21 17:01N 59°25' E 018°37'815.1
2017-Jun-21 16:30N 59°25' E 018°22'511.1
2017-Jun-21 16:00N 59°21' E 018°14'510.1
2017-Jun-21 15:31N 59°20' E 018°05'0 0.0
2017-Jun-21 15:00N 59°20' E 018°05'0 0.0
2017-Jun-21 14:30N 59°20' E 018°05'9 9.4
2017-Jun-21 13:31N 59°24' E 018°21'711.1
2017-Jun-21 12:54N 59°24' E 018°34'711.6
2017-Jun-21 12:17N 59°28' E 018°47'311.0
2017-Jun-21 12:00N 59°30' E 018°51'510.2
2017-Jun-21 11:30N 59°25' E 018°55'0 0.8
2017-Jun-21 10:59N 59°25' E 018°55'5 9.5
2017-Jun-21 10:29N 59°29' E 018°50'3 5.8
2017-Jun-21 09:57N 59°27' E 018°44'611.8
2017-Jun-21 09:25N 59°24' E 018°34'613.9
2017-Jun-21 08:59N 59°25' E 018°22'511.1
2017-Jun-21 08:30N 59°21' E 018°14'510.2
2017-Jun-21 08:01N 59°20' E 018°05'0 0.0
2017-Jun-21 07:30N 59°20' E 018°05'0 0.0
2017-Jun-21 07:00N 59°20' E 018°05'0 0.0
2017-Jun-21 06:30N 59°20' E 018°05'0 0.0
2017-Jun-21 06:00N 59°20' E 018°05'0 0.0
2017-Jun-21 05:30N 59°20' E 018°05'0 0.0
2017-Jun-21 05:00N 59°20' E 018°05'0 0.0
2017-Jun-21 04:30N 59°20' E 018°05'0 0.0
2017-Jun-21 04:00N 59°20' E 018°05'0 0.0
2017-Jun-21 03:30N 59°20' E 018°05'0 0.0
2017-Jun-21 03:00N 59°20' E 018°05'0 0.0
2017-Jun-21 02:30N 59°20' E 018°05'0 0.0
2017-Jun-21 02:00N 59°20' E 018°05'0 0.0
2017-Jun-21 01:30N 59°20' E 018°05'0 0.0
2017-Jun-21 01:00N 59°20' E 018°05'0 0.0
2017-Jun-21 00:30N 59°20' E 018°05'0 0.0
2017-Jun-21 00:01N 59°20' E 018°05'0 0.0
2017-Jun-20 23:31N 59°20' E 018°05'0 0.0
2017-Jun-20 23:00N 59°20' E 018°05'0 0.0
2017-Jun-20 22:30N 59°20' E 018°05'0 0.0
2017-Jun-20 22:00N 59°20' E 018°05'0 0.0
2017-Jun-20 21:30N 59°20' E 018°05'0 0.0
2017-Jun-20 21:00N 59°20' E 018°05'0 0.2
2017-Jun-20 20:30N 59°20' E 018°05'510.9
2017-Jun-20 20:00N 59°22' E 018°15'612.9
2017-Jun-20 19:30N 59°26' E 018°24'816.0
2017-Jun-20 18:59N 59°26' E 018°40'714.8
2017-Jun-20 18:30N 59°24' E 018°53'5 7.9
2017-Jun-20 17:54N 59°29' E 018°50'3 6.4
2017-Jun-20 17:25N 59°27' E 018°44'411.0
2017-Jun-20 17:00N 59°25' E 018°37'815.3
2017-Jun-20 16:30N 59°25' E 018°22'611.4
2017-Jun-20 16:00N 59°21' E 018°14'5 9.9
2017-Jun-20 15:31N 59°20' E 018°05'0 0.0
2017-Jun-20 15:01N 59°20' E 018°05'3 3.2
2017-Jun-20 14:01N 59°20' E 018°11'714.2
2017-Jun-20 13:30N 59°24' E 018°21'612.5
2017-Jun-20 13:01N 59°24' E 018°34'711.4
2017-Jun-20 12:25N 59°28' E 018°45'3 7.3
2017-Jun-20 12:00N 59°30' E 018°50'5 9.7
2017-Jun-20 11:31N 59°25' E 018°55'1 1.4
2017-Jun-20 10:54N 59°25' E 018°54'5 9.3
2017-Jun-20 10:25N 59°29' E 018°50'3 5.6
2017-Jun-20 09:52N 59°27' E 018°44'612.3
2017-Jun-20 09:23N 59°24' E 018°35'615.1
2017-Jun-20 08:58N 59°25' E 018°22'511.9
2017-Jun-20 08:30N 59°21' E 018°14'510.3
2017-Jun-20 08:01N 59°20' E 018°05'0 0.1
2017-Jun-20 07:31N 59°20' E 018°05'0 0.0
2017-Jun-20 07:01N 59°20' E 018°05'0 0.0
2017-Jun-20 06:31N 59°20' E 018°05'0 0.0
2017-Jun-20 06:01N 59°20' E 018°05'0 0.0
2017-Jun-20 05:31N 59°20' E 018°05'0 0.0
2017-Jun-20 05:01N 59°20' E 018°05'0 0.0
2017-Jun-20 04:31N 59°20' E 018°05'0 0.0
2017-Jun-20 04:01N 59°20' E 018°05'0 0.0
2017-Jun-20 03:31N 59°20' E 018°05'0 0.0
2017-Jun-20 03:00N 59°20' E 018°05'0 0.0
2017-Jun-20 02:31N 59°20' E 018°05'0 0.0
2017-Jun-20 02:00N 59°20' E 018°05'0 0.0
2017-Jun-20 01:31N 59°20' E 018°05'0 0.0
2017-Jun-20 01:01N 59°20' E 018°05'0 0.0
2017-Jun-20 00:31N 59°20' E 018°05'0 0.0
2017-Jun-20 00:00N 59°20' E 018°05'0 0.0
2017-Jun-19 23:31N 59°20' E 018°05'0 0.0
2017-Jun-19 23:01N 59°20' E 018°05'0 0.0
2017-Jun-19 22:31N 59°20' E 018°05'0 0.0
2017-Jun-19 22:01N 59°20' E 018°05'0 0.0
2017-Jun-19 21:30N 59°20' E 018°05'0 0.0
2017-Jun-19 21:00N 59°20' E 018°05'1 1.4
2017-Jun-19 20:30N 59°19' E 018°06'714.9
2017-Jun-19 20:01N 59°23' E 018°19'610.9
2017-Jun-19 19:30N 59°26' E 018°27'714.5
2017-Jun-19 19:01N 59°27' E 018°41'713.5
2017-Jun-19 18:31N 59°24' E 018°53'3 5.3
2017-Jun-19 18:00N 59°27' E 018°53'4 7.5
2017-Jun-19 17:30N 59°28' E 018°45'4 8.7
2017-Jun-19 17:00N 59°26' E 018°38'814.7
2017-Jun-19 16:28N 59°25' E 018°22'512.0
2017-Jun-19 16:00N 59°21' E 018°14'510.2
2017-Jun-19 15:31N 59°20' E 018°05'0 0.0
2017-Jun-19 15:00N 59°20' E 018°05'0 0.0
2017-Jun-19 14:30N 59°20' E 018°05'9 9.5
2017-Jun-19 13:30N 59°24' E 018°21'611.3
2017-Jun-19 12:56N 59°24' E 018°34'612.9
2017-Jun-19 12:29N 59°27' E 018°44'4 8.8
2017-Jun-19 12:00N 59°30' E 018°50'5 9.8
2017-Jun-19 11:31N 59°25' E 018°55'1 1.9
2017-Jun-19 11:00N 59°25' E 018°54'5 9.7
2017-Jun-19 10:31N 59°29' E 018°50'3 5.4
2017-Jun-19 10:00N 59°28' E 018°45'510.1
2017-Jun-19 09:28N 59°24' E 018°37'715.0
2017-Jun-19 08:59N 59°25' E 018°22'511.1
2017-Jun-19 08:31N 59°21' E 018°15'510.6
2017-Jun-19 08:00N 59°20' E 018°05'0 0.0
2017-Jun-19 07:31N 59°20' E 018°05'0 0.0
2017-Jun-19 07:00N 59°20' E 018°05'0 0.0
2017-Jun-19 06:30N 59°20' E 018°05'0 0.0
2017-Jun-19 06:00N 59°20' E 018°05'0 0.0
2017-Jun-19 05:30N 59°20' E 018°05'0 0.0
2017-Jun-19 05:00N 59°20' E 018°05'0 0.0
2017-Jun-19 04:31N 59°20' E 018°05'0 0.0
2017-Jun-19 04:00N 59°20' E 018°05'0 0.0
2017-Jun-19 03:30N 59°20' E 018°05'0 0.0
2017-Jun-19 03:00N 59°20' E 018°05'0 0.0
2017-Jun-19 02:30N 59°20' E 018°05'0 0.0
2017-Jun-19 02:00N 59°20' E 018°05'0 0.0
2017-Jun-19 01:30N 59°20' E 018°05'0 0.0
2017-Jun-19 01:00N 59°20' E 018°05'0 0.0
2017-Jun-19 00:30N 59°20' E 018°05'0 0.0
2017-Jun-19 00:00N 59°20' E 018°05'0 0.0
2017-Jun-18 23:30N 59°20' E 018°05'0 0.0
2017-Jun-18 23:00N 59°20' E 018°05'0 0.0
2017-Jun-18 22:30N 59°20' E 018°05'0 0.0
2017-Jun-18 22:00N 59°20' E 018°05'0 0.0
2017-Jun-18 21:30N 59°20' E 018°05'0 0.0
2017-Jun-18 21:00N 59°20' E 018°05'0 0.0
2017-Jun-18 20:30N 59°20' E 018°05'0 0.0
2017-Jun-18 20:00N 59°20' E 018°05'0 0.0
2017-Jun-18 19:30N 59°20' E 018°05'3 5.0
2017-Jun-18 19:00N 59°19' E 018°09'815.8
2017-Jun-18 18:31N 59°24' E 018°21'711.1
2017-Jun-18 17:55N 59°24' E 018°34'614.0
2017-Jun-18 17:30N 59°27' E 018°44'5 9.5
2017-Jun-18 17:01N 59°30' E 018°51'510.2
2017-Jun-18 16:31N 59°25' E 018°55'810.0
2017-Jun-18 15:44N 59°26' E 018°39'414.8
2017-Jun-18 15:30N 59°24' E 018°34'612.9
2017-Jun-18 15:00N 59°24' E 018°21'9 9.5
2017-Jun-18 14:00N 59°20' E 018°05'4 6.9
2017-Jun-18 13:30N 59°20' E 018°12'713.3
2017-Jun-18 13:00N 59°24' E 018°21'711.2
2017-Jun-18 12:21N 59°24' E 018°36'711.9
2017-Jun-18 11:44N 59°28' E 018°48'310.5
2017-Jun-18 11:27N 59°27' E 018°53'3 3.2
2017-Jun-18 10:28N 59°29' E 018°50'10 9.2
2017-Jun-18 09:26N 59°24' E 018°34'612.7
2017-Jun-18 08:58N 59°25' E 018°22'511.6
2017-Jun-18 08:30N 59°21' E 018°14'510.1
2017-Jun-18 08:01N 59°20' E 018°05'0 0.1
2017-Jun-18 07:30N 59°20' E 018°05'0 0.0
2017-Jun-18 07:00N 59°20' E 018°05'0 0.0
2017-Jun-18 06:30N 59°20' E 018°05'0 0.0
2017-Jun-18 06:00N 59°20' E 018°05'0 0.0
2017-Jun-18 05:31N 59°20' E 018°05'0 0.0
2017-Jun-18 05:00N 59°20' E 018°05'0 0.0
2017-Jun-18 04:30N 59°20' E 018°05'0 0.0
2017-Jun-18 04:00N 59°20' E 018°05'0 0.0
2017-Jun-18 03:30N 59°20' E 018°05'0 0.0
2017-Jun-18 03:00N 59°20' E 018°05'0 0.0
2017-Jun-18 02:30N 59°20' E 018°05'0 0.0
2017-Jun-18 02:00N 59°20' E 018°05'0 0.0
2017-Jun-18 01:30N 59°20' E 018°05'0 0.0
2017-Jun-18 01:00N 59°20' E 018°05'0 0.0
2017-Jun-18 00:30N 59°20' E 018°05'0 0.0
2017-Jun-18 00:00N 59°20' E 018°05'0 0.0
2017-Jun-17 23:31N 59°20' E 018°05'0 0.0
2017-Jun-17 23:01N 59°20' E 018°05'0 0.0
2017-Jun-17 22:30N 59°20' E 018°05'0 0.0
2017-Jun-17 22:00N 59°20' E 018°05'0 0.0
2017-Jun-17 21:30N 59°20' E 018°05'0 0.0
2017-Jun-17 21:00N 59°20' E 018°05'0 0.0
2017-Jun-17 20:30N 59°20' E 018°05'0 0.0
2017-Jun-17 20:00N 59°20' E 018°05'0 0.0
2017-Jun-17 19:30N 59°20' E 018°05'2 3.7
2017-Jun-17 19:00N 59°19' E 018°08'815.3
2017-Jun-17 18:30N 59°24' E 018°20'711.0
2017-Jun-17 17:51N 59°24' E 018°35'513.1
2017-Jun-17 17:29N 59°26' E 018°43'511.2
2017-Jun-17 17:01N 59°30' E 018°51'5 9.1
2017-Jun-17 16:30N 59°26' E 018°56'610.1
2017-Jun-17 15:52N 59°26' E 018°43'512.6
2017-Jun-17 15:27N 59°24' E 018°34'613.7
2017-Jun-17 15:00N 59°25' E 018°22'714.2
2017-Jun-17 14:31N 59°20' E 018°12'1 1.1
2017-Jun-17 13:30N 59°21' E 018°13'612.4
2017-Jun-17 13:00N 59°25' E 018°22'914.8
2017-Jun-17 12:26N 59°26' E 018°39'4 8.9
2017-Jun-17 12:00N 59°28' E 018°45'4 8.0
2017-Jun-17 11:30N 59°27' E 018°53'3 6.0
2017-Jun-17 11:01N 59°24' E 018°53'612.4
2017-Jun-17 10:31N 59°30' E 018°51'4 8.5
2017-Jun-17 10:00N 59°27' E 018°45'711.1
2017-Jun-17 09:24N 59°25' E 018°32'513.6
2017-Jun-17 09:00N 59°25' E 018°22'510.4
2017-Jun-17 08:30N 59°21' E 018°14'510.1
2017-Jun-17 08:01N 59°20' E 018°05'0 0.0
2017-Jun-17 07:30N 59°20' E 018°05'0 0.0
2017-Jun-17 07:00N 59°20' E 018°05'0 0.0
2017-Jun-17 06:30N 59°20' E 018°05'0 0.0
2017-Jun-17 06:01N 59°20' E 018°05'0 0.0
2017-Jun-17 05:30N 59°20' E 018°05'0 0.0
2017-Jun-17 05:00N 59°20' E 018°05'0 0.0
2017-Jun-17 04:30N 59°20' E 018°05'0 0.0
2017-Jun-17 04:00N 59°20' E 018°05'0 0.0
2017-Jun-17 03:30N 59°20' E 018°05'0 0.0
2017-Jun-17 03:00N 59°20' E 018°05'0 0.0
2017-Jun-17 02:30N 59°20' E 018°05'0 0.0
2017-Jun-17 02:00N 59°20' E 018°05'0 0.0
2017-Jun-17 01:30N 59°20' E 018°05'0 0.0
2017-Jun-17 01:00N 59°20' E 018°05'0 0.0
2017-Jun-17 00:30N 59°20' E 018°05'0 0.1
2017-Jun-17 00:00N 59°20' E 018°05'0 0.1
2017-Jun-16 23:30N 59°20' E 018°05'0 0.0
2017-Jun-16 23:01N 59°20' E 018°05'0 0.0
2017-Jun-16 22:30N 59°20' E 018°05'0 0.0
2017-Jun-16 22:01N 59°20' E 018°05'0 0.0
2017-Jun-16 21:30N 59°20' E 018°05'0 0.0
2017-Jun-16 21:01N 59°20' E 018°05'0 0.8
2017-Jun-16 20:30N 59°20' E 018°05'612.8
2017-Jun-16 20:01N 59°22' E 018°17'612.7
2017-Jun-16 19:31N 59°27' E 018°26'816.1
2017-Jun-16 19:00N 59°26' E 018°42'612.9
2017-Jun-16 18:31N 59°25' E 018°54'3 5.8
2017-Jun-16 18:01N 59°27' E 018°52'3 6.6
2017-Jun-16 17:31N 59°28' E 018°45'4 8.3
2017-Jun-16 17:01N 59°26' E 018°38'816.2
2017-Jun-16 16:31N 59°26' E 018°22'611.5
2017-Jun-16 16:00N 59°21' E 018°15'510.5
2017-Jun-16 15:31N 59°20' E 018°05'1 2.4
2017-Jun-16 15:00N 59°19' E 018°07'816.4
2017-Jun-16 14:30N 59°23' E 018°20'1312.8
2017-Jun-16 13:31N 59°26' E 018°45'  

Dump ship's entire track history